createdAt,value
2022-11-20T00:00:15.270Z,-4.41
2022-11-20T00:01:15.284Z,-4.48
2022-11-20T00:02:15.348Z,-4.48
2022-11-20T00:03:15.259Z,-4.48
2022-11-20T00:04:15.228Z,-4.50
2022-11-20T00:05:15.233Z,-4.50
2022-11-20T00:06:15.188Z,-4.53
2022-11-20T00:07:15.226Z,-4.57
2022-11-20T00:08:15.180Z,-4.57
2022-11-20T00:09:15.195Z,-4.53
2022-11-20T00:10:15.171Z,-4.60
2022-11-20T00:11:16.329Z,-4.61
2022-11-20T00:12:15.155Z,-4.60
2022-11-20T00:13:15.146Z,-4.59
2022-11-20T00:14:15.115Z,-4.60
2022-11-20T00:15:15.133Z,-4.63
2022-11-20T00:16:15.122Z,-4.61
2022-11-20T00:17:15.127Z,-4.67
2022-11-20T00:18:15.080Z,-4.67
2022-11-20T00:19:15.083Z,-4.70
2022-11-20T00:20:15.052Z,-4.69
2022-11-20T00:21:15.068Z,-4.67
2022-11-20T00:22:15.056Z,-4.71
2022-11-20T00:23:15.071Z,-4.67
2022-11-20T00:24:15.013Z,-4.66
2022-11-20T00:25:15.034Z,-4.69
2022-11-20T00:26:15.013Z,-4.69
2022-11-20T00:27:15.008Z,-4.69
2022-11-20T00:28:14.991Z,-4.71
2022-11-20T00:29:15.007Z,-4.75
2022-11-20T00:30:15.383Z,-4.71
2022-11-20T00:31:14.991Z,-4.67
2022-11-20T00:32:14.934Z,-4.67
2022-11-20T00:33:14.952Z,-4.67
2022-11-20T00:34:14.943Z,-4.66
2022-11-20T00:35:14.951Z,-4.69
2022-11-20T00:36:14.906Z,-4.66
2022-11-20T00:37:14.914Z,-4.69
2022-11-20T00:38:14.879Z,-4.66
2022-11-20T00:39:14.896Z,-4.69
2022-11-20T00:40:14.916Z,-4.69
2022-11-20T00:41:14.866Z,-4.75
2022-11-20T00:42:14.840Z,-4.78
2022-11-20T00:43:14.848Z,-4.81
2022-11-20T00:44:14.820Z,-4.81
2022-11-20T00:45:14.836Z,-4.81
2022-11-20T00:46:14.818Z,-4.82
2022-11-20T00:47:14.819Z,-4.81
2022-11-20T00:48:14.787Z,-4.77
2022-11-20T00:49:14.788Z,-4.77
2022-11-20T00:50:14.791Z,-4.81
2022-11-20T00:51:14.764Z,-4.87
2022-11-20T00:52:14.748Z,-4.98
2022-11-20T00:53:14.749Z,-5.03
2022-11-20T00:54:14.725Z,-5.13
2022-11-20T00:55:14.725Z,-5.13
2022-11-20T00:56:14.694Z,-5.09
2022-11-20T00:57:14.739Z,-5.06
2022-11-20T00:58:14.689Z,-4.99
2022-11-20T00:59:14.699Z,-4.92
2022-11-20T01:00:14.674Z,-4.87
2022-11-20T01:01:14.808Z,-4.79
2022-11-20T01:02:14.641Z,-4.77
2022-11-20T01:03:14.671Z,-4.71
2022-11-20T01:04:14.629Z,-4.81
2022-11-20T01:05:14.625Z,-4.87
2022-11-20T01:06:14.597Z,-4.88
2022-11-20T01:07:14.671Z,-4.91
2022-11-20T01:08:14.612Z,-4.98
2022-11-20T01:09:14.579Z,-5.00
2022-11-20T01:10:14.581Z,-5.08
2022-11-20T01:11:14.555Z,-5.13
2022-11-20T01:12:14.561Z,-5.17
2022-11-20T01:13:14.551Z,-5.17
2022-11-20T01:14:14.555Z,-5.17
2022-11-20T01:15:14.515Z,-5.13
2022-11-20T01:16:14.535Z,-5.17
2022-11-20T01:17:14.480Z,-5.18
2022-11-20T01:18:14.512Z,-5.17
2022-11-20T01:19:17.728Z,-5.17
2022-11-20T01:20:14.517Z,-5.21
2022-11-20T01:21:14.447Z,-5.19
2022-11-20T01:22:14.465Z,-5.18
2022-11-20T01:23:14.440Z,-5.17
2022-11-20T01:24:14.438Z,-5.10
2022-11-20T01:25:14.419Z,-5.05
2022-11-20T01:26:14.420Z,-5.05
2022-11-20T01:27:14.383Z,-5.09
2022-11-20T01:28:14.403Z,-5.19
2022-11-20T01:29:14.364Z,-5.27
2022-11-20T01:30:14.382Z,-5.31
2022-11-20T01:31:14.399Z,-5.40
2022-11-20T01:32:14.363Z,-5.40
2022-11-20T01:33:14.338Z,-5.45
2022-11-20T01:34:14.344Z,-5.49
2022-11-20T01:35:14.314Z,-5.51
2022-11-20T01:36:14.324Z,-5.51
2022-11-20T01:37:14.310Z,-5.40
2022-11-20T01:38:14.304Z,-5.39
2022-11-20T01:39:14.270Z,-5.27
2022-11-20T01:40:14.299Z,-5.24
2022-11-20T01:41:14.254Z,-5.14
2022-11-20T01:42:14.313Z,-5.02
2022-11-20T01:43:14.230Z,-4.89
2022-11-20T01:44:14.257Z,-4.79
2022-11-20T01:45:14.223Z,-4.67
2022-11-20T01:46:14.231Z,-4.60
2022-11-20T01:47:14.218Z,-4.50
2022-11-20T01:48:14.229Z,-4.41
2022-11-20T01:49:14.166Z,-4.28
2022-11-20T01:50:14.205Z,-4.24
2022-11-20T01:51:14.193Z,-4.20
2022-11-20T01:52:14.165Z,-4.20
2022-11-20T01:53:14.244Z,-4.13
2022-11-20T01:54:14.139Z,-4.07
2022-11-20T01:55:14.130Z,-4.07
2022-11-20T01:56:14.148Z,-4.04
2022-11-20T01:57:14.087Z,-4.02
2022-11-20T01:58:14.109Z,-4.02
2022-11-20T01:59:14.097Z,-3.92
2022-11-20T02:00:14.089Z,-3.85
2022-11-20T02:01:14.112Z,-3.85
2022-11-20T02:02:14.093Z,-3.86
2022-11-20T02:03:14.028Z,-3.82
2022-11-20T02:04:14.088Z,-3.80
2022-11-20T02:05:14.014Z,-3.82
2022-11-20T02:06:14.039Z,-3.78
2022-11-20T02:07:14.086Z,-3.75
2022-11-20T02:08:14.002Z,-3.72
2022-11-20T02:09:13.999Z,-3.67
2022-11-20T02:10:13.996Z,-3.61
2022-11-20T02:11:13.973Z,-3.63
2022-11-20T02:12:13.987Z,-3.61
2022-11-20T02:13:13.938Z,-3.56
2022-11-20T02:14:13.938Z,-3.51
2022-11-20T02:15:13.940Z,-3.48
2022-11-20T02:16:13.928Z,-3.44
2022-11-20T02:17:13.908Z,-3.41
2022-11-20T02:18:13.905Z,-3.46
2022-11-20T02:19:13.880Z,-3.49
2022-11-20T02:20:13.891Z,-3.49
2022-11-20T02:21:13.886Z,-3.44
2022-11-20T02:22:13.858Z,-3.40
2022-11-20T02:23:13.848Z,-3.38
2022-11-20T02:24:13.847Z,-3.37
2022-11-20T02:25:13.807Z,-3.33
2022-11-20T02:26:13.830Z,-3.34
2022-11-20T02:27:13.818Z,-3.35
2022-11-20T02:28:13.821Z,-3.34
2022-11-20T02:29:13.791Z,-3.31
2022-11-20T02:30:13.783Z,-3.23
2022-11-20T02:31:13.752Z,-3.17
2022-11-20T02:32:13.772Z,-3.13
2022-11-20T02:33:13.767Z,-3.12
2022-11-20T02:34:13.760Z,-3.07
2022-11-20T02:35:13.712Z,-3.02
2022-11-20T02:36:13.719Z,-3.01
2022-11-20T02:37:13.688Z,-2.95
2022-11-20T02:38:13.705Z,-2.91
2022-11-20T02:39:13.703Z,-2.92
2022-11-20T02:40:13.695Z,-2.91
2022-11-20T02:41:13.641Z,-2.86
2022-11-20T02:42:13.657Z,-2.78
2022-11-20T02:43:13.624Z,-2.73
2022-11-20T02:44:13.635Z,-2.71
2022-11-20T02:45:13.629Z,-2.70
2022-11-20T02:46:13.634Z,-2.66
2022-11-20T02:47:13.599Z,-2.63
2022-11-20T02:48:13.595Z,-2.60
2022-11-20T02:49:13.562Z,-2.59
2022-11-20T02:50:13.579Z,-2.59
2022-11-20T02:51:13.588Z,-2.60
2022-11-20T02:52:13.556Z,-2.58
2022-11-20T02:53:13.587Z,-2.56
2022-11-20T02:54:13.552Z,-2.53
2022-11-20T02:55:13.525Z,-2.52
2022-11-20T02:56:13.531Z,-2.53
2022-11-20T02:57:13.583Z,-2.48
2022-11-20T02:58:13.504Z,-2.44
2022-11-20T02:59:13.466Z,-2.44
2022-11-20T03:00:13.479Z,-2.41
2022-11-20T03:01:13.496Z,-2.34
2022-11-20T03:02:13.467Z,-2.34
2022-11-20T03:03:13.448Z,-2.32
2022-11-20T03:04:13.463Z,-2.28
2022-11-20T03:05:13.410Z,-2.23
2022-11-20T03:06:13.433Z,-2.18
2022-11-20T03:07:13.462Z,-2.19
2022-11-20T03:08:13.397Z,-2.15
2022-11-20T03:09:13.398Z,-2.15
2022-11-20T03:10:13.378Z,-2.15
2022-11-20T03:11:13.338Z,-2.13
2022-11-20T03:12:13.351Z,-2.13
2022-11-20T03:13:13.322Z,-2.15
2022-11-20T03:14:13.346Z,-2.13
2022-11-20T03:15:13.350Z,-2.08
2022-11-20T03:16:13.312Z,-2.05
2022-11-20T03:17:13.296Z,-2.07
2022-11-20T03:18:13.301Z,-2.02
2022-11-20T03:19:13.260Z,-2.01
2022-11-20T03:20:13.278Z,-1.98
2022-11-20T03:21:13.272Z,-2.00
2022-11-20T03:22:13.271Z,-2.01
2022-11-20T03:23:13.226Z,-1.98
2022-11-20T03:24:13.259Z,-2.02
2022-11-20T03:25:13.205Z,-2.01
2022-11-20T03:26:13.211Z,-1.98
2022-11-20T03:27:13.196Z,-1.97
2022-11-20T03:28:13.214Z,-1.95
2022-11-20T03:29:13.162Z,-1.94
2022-11-20T03:30:13.183Z,-1.90
2022-11-20T03:31:13.150Z,-1.87
2022-11-20T03:32:13.172Z,-1.87
2022-11-20T03:33:13.136Z,-1.89
2022-11-20T03:34:13.131Z,-1.89
2022-11-20T03:35:13.099Z,-1.86
2022-11-20T03:36:13.112Z,-1.80
2022-11-20T03:37:13.087Z,-1.83
2022-11-20T03:38:13.090Z,-1.80
2022-11-20T03:39:13.096Z,-1.83
2022-11-20T03:40:13.083Z,-1.80
2022-11-20T03:41:13.039Z,-1.76
2022-11-20T03:42:13.094Z,-1.72
2022-11-20T03:43:13.042Z,-1.71
2022-11-20T03:44:13.044Z,-1.68
2022-11-20T03:45:13.018Z,-1.68
2022-11-20T03:46:13.006Z,-1.66
2022-11-20T03:47:12.990Z,-1.69
2022-11-20T03:48:12.990Z,-1.71
2022-11-20T03:49:12.959Z,-1.68
2022-11-20T03:50:12.987Z,-1.68
2022-11-20T03:51:12.981Z,-1.68
2022-11-20T03:52:12.946Z,-1.65
2022-11-20T03:53:12.939Z,-1.71
2022-11-20T03:54:12.924Z,-1.68
2022-11-20T03:55:12.916Z,-1.68
2022-11-20T03:56:12.920Z,-1.65
2022-11-20T03:57:12.899Z,-1.62
2022-11-20T03:58:12.910Z,-1.61
2022-11-20T03:59:12.861Z,-1.56
2022-11-20T04:00:12.866Z,-1.59
2022-11-20T04:01:12.829Z,-1.56
2022-11-20T04:02:12.885Z,-1.54
2022-11-20T04:03:12.838Z,-1.48
2022-11-20T04:04:12.852Z,-1.50
2022-11-20T04:05:12.795Z,-1.50
2022-11-20T04:06:12.817Z,-1.50
2022-11-20T04:07:12.795Z,-1.51
2022-11-20T04:08:12.797Z,-1.48
2022-11-20T04:09:12.775Z,-1.46
2022-11-20T04:10:12.776Z,-1.41
2022-11-20T04:11:12.740Z,-1.41
2022-11-20T04:12:12.773Z,-1.38
2022-11-20T04:13:12.706Z,-1.35
2022-11-20T04:14:12.727Z,-1.35
2022-11-20T04:15:12.717Z,-1.37
2022-11-20T04:16:12.701Z,-1.32
2022-11-20T04:17:12.668Z,-1.37
2022-11-20T04:18:12.694Z,-1.30
2022-11-20T04:19:12.650Z,-1.29
2022-11-20T04:20:12.685Z,-1.25
2022-11-20T04:21:12.689Z,-1.25
2022-11-20T04:22:12.618Z,-1.20
2022-11-20T04:23:12.645Z,-1.17
2022-11-20T04:24:12.615Z,-1.17
2022-11-20T04:25:12.607Z,-1.17
2022-11-20T04:26:12.581Z,-1.22
2022-11-20T04:27:12.603Z,-1.22
2022-11-20T04:28:12.561Z,-1.30
2022-11-20T04:29:12.587Z,-1.32
2022-11-20T04:30:12.549Z,-1.33
2022-11-20T04:31:12.574Z,-1.37
2022-11-20T04:32:12.522Z,-1.37
2022-11-20T04:33:12.565Z,-1.33
2022-11-20T04:34:12.507Z,-1.29
2022-11-20T04:35:12.542Z,-1.27
2022-11-20T04:36:12.482Z,-1.26
2022-11-20T04:37:12.487Z,-1.23
2022-11-20T04:38:12.457Z,-1.22
2022-11-20T04:39:12.495Z,-1.20
2022-11-20T04:40:12.444Z,-1.20
2022-11-20T04:41:12.457Z,-1.17
2022-11-20T04:42:12.415Z,-1.15
2022-11-20T04:43:12.438Z,-1.20
2022-11-20T04:44:12.422Z,-1.22
2022-11-20T04:45:12.462Z,-1.23
2022-11-20T04:46:12.371Z,-1.22
2022-11-20T04:47:12.391Z,-1.20
2022-11-20T04:48:12.364Z,-1.19
2022-11-20T04:49:12.497Z,-1.19
2022-11-20T04:50:12.332Z,-1.22
2022-11-20T04:51:12.393Z,-1.20
2022-11-20T04:52:12.327Z,-1.15
2022-11-20T04:53:12.344Z,-1.19
2022-11-20T04:54:12.299Z,-1.15
2022-11-20T04:55:12.311Z,-1.08
2022-11-20T04:56:12.287Z,-1.09
2022-11-20T04:57:14.621Z,-1.04
2022-11-20T04:58:12.271Z,-1.08
2022-11-20T04:59:12.265Z,-1.08
2022-11-20T05:00:12.233Z,-1.04
2022-11-20T05:01:12.281Z,-1.04
2022-11-20T05:02:12.218Z,-1.02
2022-11-20T05:03:12.258Z,-1.01
2022-11-20T05:04:12.214Z,-0.97
2022-11-20T05:05:12.224Z,-0.99
2022-11-20T05:06:12.184Z,-1.01
2022-11-20T05:07:12.203Z,-1.04
2022-11-20T05:08:12.148Z,-1.04
2022-11-20T05:09:12.279Z,-1.07
2022-11-20T05:10:12.154Z,-1.07
2022-11-20T05:11:12.144Z,-1.05
2022-11-20T05:12:12.109Z,-1.04
2022-11-20T05:13:12.142Z,-1.07
2022-11-20T05:14:12.088Z,-1.05
2022-11-20T05:15:12.133Z,-1.07
2022-11-20T05:16:12.067Z,-1.05
2022-11-20T05:17:12.107Z,-1.02
2022-11-20T05:18:12.060Z,-0.99
2022-11-20T05:19:12.072Z,-0.99
2022-11-20T05:20:12.034Z,-0.94
2022-11-20T05:21:12.070Z,-0.93
2022-11-20T05:22:12.022Z,-0.93
2022-11-20T05:23:12.030Z,-0.90
2022-11-20T05:24:12.005Z,-0.83
2022-11-20T05:25:11.993Z,-0.89
2022-11-20T05:26:12.006Z,-0.90
2022-11-20T05:27:11.968Z,-0.86
2022-11-20T05:28:11.989Z,-0.86
2022-11-20T05:29:11.935Z,-0.82
2022-11-20T05:30:11.946Z,-0.86
2022-11-20T05:31:11.939Z,-0.85
2022-11-20T05:32:11.945Z,-0.89
2022-11-20T05:33:11.935Z,-0.91
2022-11-20T05:34:11.913Z,-0.86
2022-11-20T05:35:11.882Z,-0.89
2022-11-20T05:36:11.900Z,-0.86
2022-11-20T05:37:11.853Z,-0.83
2022-11-20T05:38:11.865Z,-0.85
2022-11-20T05:39:11.875Z,-0.82
2022-11-20T05:40:11.861Z,-0.83
2022-11-20T05:41:11.810Z,-0.80
2022-11-20T05:42:11.844Z,-0.80
2022-11-20T05:43:11.790Z,-0.83
2022-11-20T05:44:11.800Z,-0.78
2022-11-20T05:45:11.800Z,-0.78
2022-11-20T05:46:11.809Z,-0.77
2022-11-20T05:47:11.757Z,-0.77
2022-11-20T05:48:11.771Z,-0.80
2022-11-20T05:49:11.826Z,-0.82
2022-11-20T05:50:11.754Z,-0.90
2022-11-20T05:51:11.741Z,-0.91
2022-11-20T05:52:11.723Z,-0.93
2022-11-20T05:53:11.703Z,-0.93
2022-11-20T05:54:11.708Z,-1.01
2022-11-20T05:55:11.685Z,-1.12
2022-11-20T05:56:11.685Z,-1.17
2022-11-20T05:57:11.673Z,-1.23
2022-11-20T05:58:11.658Z,-1.25
2022-11-20T05:59:11.638Z,-1.30
2022-11-20T06:00:11.652Z,-1.27
2022-11-20T06:01:11.616Z,-1.32
2022-11-20T06:02:11.781Z,-1.38
2022-11-20T06:03:11.612Z,-1.35
2022-11-20T06:04:11.600Z,-1.40
2022-11-20T06:05:11.565Z,-1.46
2022-11-20T06:06:11.576Z,-1.56
2022-11-20T06:07:11.591Z,-1.61
2022-11-20T06:08:11.559Z,-1.65
2022-11-20T06:09:11.539Z,-1.64
2022-11-20T06:10:11.555Z,-1.62
2022-11-20T06:11:11.513Z,-1.61
2022-11-20T06:12:11.514Z,-1.64
2022-11-20T06:13:11.484Z,-1.71
2022-11-20T06:14:11.496Z,-1.72
2022-11-20T06:15:11.509Z,-1.77
2022-11-20T06:16:11.513Z,-1.74
2022-11-20T06:17:11.457Z,-1.79
2022-11-20T06:18:11.480Z,-1.87
2022-11-20T06:19:11.451Z,-1.89
2022-11-20T06:20:11.445Z,-1.95
2022-11-20T06:21:11.455Z,-2.00
2022-11-20T06:22:11.431Z,-1.98
2022-11-20T06:23:11.382Z,-1.98
2022-11-20T06:24:11.399Z,-2.01
2022-11-20T06:25:11.360Z,-1.98
2022-11-20T06:26:11.414Z,-1.94
2022-11-20T06:27:11.366Z,-1.97
2022-11-20T06:28:11.360Z,-2.02
2022-11-20T06:29:11.327Z,-2.10
2022-11-20T06:30:11.335Z,-2.23
2022-11-20T06:31:11.308Z,-2.30
2022-11-20T06:32:11.325Z,-2.34
2022-11-20T06:33:11.312Z,-2.35
2022-11-20T06:34:11.293Z,-2.38
2022-11-20T06:35:11.265Z,-2.42
2022-11-20T06:36:11.298Z,-2.44
2022-11-20T06:37:11.259Z,-2.44
2022-11-20T06:38:11.264Z,-2.45
2022-11-20T06:39:11.237Z,-2.42
2022-11-20T06:40:11.233Z,-2.42
2022-11-20T06:41:11.207Z,-2.44
2022-11-20T06:42:11.211Z,-2.42
2022-11-20T06:43:11.181Z,-2.45
2022-11-20T06:44:11.221Z,-2.50
2022-11-20T06:45:11.212Z,-2.58
2022-11-20T06:46:11.171Z,-2.65
2022-11-20T06:47:11.151Z,-2.76
2022-11-20T06:48:11.152Z,-2.84
2022-11-20T06:49:11.128Z,-2.88
2022-11-20T06:50:11.138Z,-2.83
2022-11-20T06:51:11.129Z,-2.74
2022-11-20T06:52:11.117Z,-2.71
2022-11-20T06:53:11.075Z,-2.69
2022-11-20T06:54:11.108Z,-2.69
2022-11-20T06:55:11.057Z,-2.63
2022-11-20T06:56:11.084Z,-2.65
2022-11-20T06:57:11.060Z,-2.65
2022-11-20T06:58:11.055Z,-2.65
2022-11-20T06:59:11.026Z,-2.69
2022-11-20T07:00:11.039Z,-2.65
2022-11-20T07:01:11.073Z,-2.63
2022-11-20T07:02:11.012Z,-2.74
2022-11-20T07:03:11.016Z,-2.83
2022-11-20T07:04:11.020Z,-2.86
2022-11-20T07:05:10.966Z,-2.95
2022-11-20T07:06:10.995Z,-2.94
2022-11-20T07:07:10.988Z,-2.98
2022-11-20T07:08:10.959Z,-3.01
2022-11-20T07:09:12.880Z,-3.09
2022-11-20T07:10:10.938Z,-3.07
2022-11-20T07:11:10.933Z,-3.02
2022-11-20T07:12:10.914Z,-2.99
2022-11-20T07:13:10.905Z,-3.01
2022-11-20T07:14:10.897Z,-2.99
2022-11-20T07:15:10.884Z,-2.94
2022-11-20T07:16:10.880Z,-2.88
2022-11-20T07:17:10.836Z,-2.88
2022-11-20T07:18:10.853Z,-2.91
2022-11-20T07:19:10.813Z,-2.95
2022-11-20T07:20:10.857Z,-3.01
2022-11-20T07:21:10.850Z,-3.09
2022-11-20T07:22:10.811Z,-3.15
2022-11-20T07:23:10.782Z,-3.13
2022-11-20T07:24:10.842Z,-3.09
2022-11-20T07:25:10.757Z,-3.07
2022-11-20T07:26:10.771Z,-3.07
2022-11-20T07:27:10.766Z,-2.99
2022-11-20T07:28:10.773Z,-2.97
2022-11-20T07:29:10.721Z,-2.97
2022-11-20T07:30:10.736Z,-2.98
2022-11-20T07:31:13.425Z,-2.92
2022-11-20T07:32:10.747Z,-2.89
2022-11-20T07:33:10.705Z,-2.94
2022-11-20T07:34:10.686Z,-2.92
2022-11-20T07:35:10.656Z,-2.92
2022-11-20T07:36:10.673Z,-2.89
2022-11-20T07:37:10.749Z,-2.81
2022-11-20T07:38:10.654Z,-2.78
2022-11-20T07:39:10.629Z,-2.81
2022-11-20T07:40:10.741Z,-2.80
2022-11-20T07:41:10.591Z,-2.81
2022-11-20T07:42:10.627Z,-2.77
2022-11-20T07:43:10.575Z,-2.77
2022-11-20T07:44:10.641Z,-2.73
2022-11-20T07:45:10.572Z,-2.71
2022-11-20T07:46:10.569Z,-2.69
2022-11-20T07:47:10.554Z,-2.73
2022-11-20T07:48:10.549Z,-2.73
2022-11-20T07:49:10.507Z,-2.70
2022-11-20T07:50:10.540Z,-2.71
2022-11-20T07:51:10.502Z,-2.66
2022-11-20T07:52:10.503Z,-2.62
2022-11-20T07:53:10.483Z,-2.63
2022-11-20T07:54:10.487Z,-2.63
2022-11-20T07:55:10.483Z,-2.62
2022-11-20T07:56:10.466Z,-2.60
2022-11-20T07:57:10.455Z,-2.60
2022-11-20T07:58:10.462Z,-2.56
2022-11-20T07:59:10.409Z,-2.52
2022-11-20T08:00:10.450Z,-2.44
2022-11-20T08:01:10.478Z,-2.41
2022-11-20T08:02:10.409Z,-2.34
2022-11-20T08:03:10.371Z,-2.25
2022-11-20T08:04:10.405Z,-2.16
2022-11-20T08:05:10.395Z,-2.10
2022-11-20T08:06:10.399Z,-2.04
2022-11-20T08:07:10.377Z,-2.00
2022-11-20T08:08:10.349Z,-2.02
2022-11-20T08:09:10.310Z,-1.98
2022-11-20T08:10:10.335Z,-1.92
2022-11-20T08:11:10.294Z,-1.84
2022-11-20T08:12:10.328Z,-1.83
2022-11-20T08:13:10.266Z,-1.84
2022-11-20T08:14:10.280Z,-1.89
2022-11-20T08:15:13.349Z,-1.86
2022-11-20T08:16:10.270Z,-1.83
2022-11-20T08:17:10.280Z,-1.80
2022-11-20T08:19:10.235Z,-1.50
2022-11-20T08:20:10.223Z,-1.26
2022-11-20T08:21:10.204Z,-1.08
2022-11-20T08:22:10.195Z,-0.71
2022-11-20T08:23:10.185Z,-0.28
2022-11-20T08:24:10.198Z,0.03
2022-11-20T08:25:10.144Z,0.31
2022-11-20T08:26:10.165Z,0.66
2022-11-20T08:27:10.131Z,0.80
2022-11-20T08:28:19.966Z,0.78
2022-11-20T08:29:10.115Z,0.95
2022-11-20T08:30:10.124Z,1.14
2022-11-20T08:31:10.112Z,1.53
2022-11-20T08:32:10.098Z,1.84
2022-11-20T08:33:10.071Z,2.13
2022-11-20T08:34:12.076Z,2.36
2022-11-20T08:35:10.062Z,2.53
2022-11-20T08:36:10.062Z,2.62
2022-11-20T08:37:10.025Z,2.64
2022-11-20T08:38:10.055Z,2.39
2022-11-20T08:39:10.031Z,2.15
2022-11-20T08:40:10.040Z,1.91
2022-11-20T08:41:09.987Z,1.62
2022-11-20T08:42:10.009Z,1.17
2022-11-20T08:43:09.977Z,0.88
2022-11-20T08:44:09.979Z,0.78
2022-11-20T08:45:09.961Z,0.59
2022-11-20T08:46:09.971Z,0.37
2022-11-20T08:47:09.950Z,0.26
2022-11-20T08:48:09.945Z,0.22
2022-11-20T08:49:09.911Z,0.12
2022-11-20T08:50:09.940Z,0.05
2022-11-20T08:51:09.901Z,0.01
2022-11-20T08:52:09.900Z,-0.06
2022-11-20T08:53:09.881Z,-0.08
2022-11-20T08:54:09.878Z,-0.13
2022-11-20T08:55:09.861Z,-0.23
2022-11-20T08:56:09.885Z,-0.25
2022-11-20T08:57:09.828Z,-0.29
2022-11-20T08:58:09.840Z,-0.29
2022-11-20T08:59:43.473Z,-0.31
2022-11-20T09:00:10.164Z,-0.29
2022-11-20T09:01:09.852Z,-0.29
2022-11-20T09:02:09.807Z,-0.26
2022-11-20T09:03:09.754Z,-0.23
2022-11-20T09:04:09.771Z,-0.11
2022-11-20T09:05:09.746Z,0.05
2022-11-20T09:06:09.750Z,0.15
2022-11-20T09:07:09.844Z,0.19
2022-11-20T09:08:09.742Z,0.21
2022-11-20T09:09:09.700Z,0.26
2022-11-20T09:10:23.604Z,0.36
2022-11-20T09:11:09.687Z,0.41
2022-11-20T09:12:09.724Z,0.41
2022-11-20T09:13:09.665Z,0.39
2022-11-20T09:14:09.672Z,0.32
2022-11-20T09:15:09.653Z,0.29
2022-11-20T09:16:09.664Z,0.25
2022-11-20T09:17:09.629Z,0.23
2022-11-20T09:18:09.637Z,0.21
2022-11-20T09:20:09.617Z,0.01
2022-11-20T09:21:09.656Z,0.04
2022-11-20T09:22:09.587Z,0.00
2022-11-20T09:23:09.589Z,-0.03
2022-11-20T09:24:09.563Z,-0.03
2022-11-20T09:25:09.541Z,-0.03
2022-11-20T09:26:09.550Z,-0.02
2022-11-20T09:27:09.528Z,-0.02
2022-11-20T09:28:09.524Z,0.00
2022-11-20T09:29:09.510Z,-0.02
2022-11-20T09:30:09.526Z,0.01
2022-11-20T09:31:09.498Z,0.00
2022-11-20T09:32:09.510Z,0.01
2022-11-20T09:33:09.456Z,0.03
2022-11-20T09:34:09.497Z,0.04
2022-11-20T09:35:09.452Z,0.07
2022-11-20T09:36:09.440Z,0.04
2022-11-20T09:37:09.552Z,0.11
2022-11-20T09:38:09.431Z,0.16
2022-11-20T09:39:09.455Z,0.16
2022-11-20T09:40:09.410Z,0.22
2022-11-20T09:41:09.410Z,0.31
2022-11-20T09:42:09.357Z,0.31
2022-11-20T09:43:09.406Z,0.34
2022-11-20T09:44:09.343Z,0.39
2022-11-20T09:45:09.398Z,0.39
2022-11-20T09:46:09.328Z,0.43
2022-11-20T09:47:09.333Z,0.47
2022-11-20T09:48:09.303Z,0.52
2022-11-20T09:49:09.313Z,0.56
2022-11-20T09:50:09.451Z,0.62
2022-11-20T09:51:09.333Z,0.63
2022-11-20T09:52:09.271Z,0.63
2022-11-20T09:53:09.265Z,0.65
2022-11-20T09:54:09.259Z,0.65
2022-11-20T09:55:09.248Z,0.60
2022-11-20T09:56:09.348Z,0.66
2022-11-20T09:57:09.224Z,0.65
2022-11-20T09:58:09.199Z,0.65
2022-11-20T09:59:09.207Z,0.68
2022-11-20T10:00:09.181Z,0.69
2022-11-20T10:01:09.255Z,0.69
2022-11-20T10:02:09.168Z,0.73
2022-11-20T10:03:09.162Z,0.74
2022-11-20T10:04:09.132Z,0.78
2022-11-20T10:05:09.159Z,0.80
2022-11-20T10:06:09.110Z,0.84
2022-11-20T10:07:31.425Z,0.86
2022-11-20T10:08:09.136Z,0.87
2022-11-20T10:09:09.121Z,0.87
2022-11-20T10:10:09.082Z,0.91
2022-11-20T10:11:09.094Z,0.94
2022-11-20T10:12:09.051Z,0.95
2022-11-20T10:13:09.094Z,0.96
2022-11-20T10:14:09.027Z,0.99
2022-11-20T10:15:09.059Z,1.01
2022-11-20T10:16:09.009Z,1.02
2022-11-20T10:17:09.023Z,1.05
2022-11-20T10:18:09.005Z,1.06
2022-11-20T10:19:09.011Z,1.13
2022-11-20T10:20:09.013Z,1.14
2022-11-20T10:21:08.978Z,1.20
2022-11-20T10:22:08.969Z,1.17
2022-11-20T10:23:08.959Z,1.20
2022-11-20T10:24:08.944Z,1.24
2022-11-20T10:25:08.937Z,1.28
2022-11-20T10:26:09.161Z,1.32
2022-11-20T10:27:09.856Z,1.35
2022-11-20T10:28:08.895Z,1.41
2022-11-20T10:29:09.277Z,1.48
2022-11-20T10:30:08.883Z,1.55
2022-11-20T10:31:08.894Z,1.53
2022-11-20T10:32:08.860Z,1.56
2022-11-20T10:33:08.876Z,1.58
2022-11-20T10:34:12.774Z,1.60
2022-11-20T10:35:08.850Z,1.66
2022-11-20T10:36:08.801Z,1.70
2022-11-20T10:37:08.839Z,1.67
2022-11-20T10:38:08.814Z,1.74
2022-11-20T10:39:08.811Z,1.77
2022-11-20T10:40:08.785Z,1.81
2022-11-20T10:41:08.777Z,1.85
2022-11-20T10:42:08.758Z,1.87
2022-11-20T10:43:08.792Z,1.92
2022-11-20T10:44:08.760Z,2.08
2022-11-20T10:45:08.735Z,2.35
2022-11-20T10:46:08.724Z,2.85
2022-11-20T10:47:08.715Z,3.37
2022-11-20T10:48:08.697Z,3.99
2022-11-20T10:49:08.696Z,4.59
2022-11-20T10:50:08.687Z,5.08
2022-11-20T10:51:08.705Z,5.26
2022-11-20T10:52:08.662Z,5.41
2022-11-20T10:53:08.652Z,5.83
2022-11-20T10:54:08.625Z,6.01
2022-11-20T10:55:08.648Z,5.79
2022-11-20T10:56:08.615Z,5.82
2022-11-20T10:57:08.817Z,6.01
2022-11-20T10:58:08.573Z,5.98
2022-11-20T10:59:08.592Z,6.24
2022-11-20T11:00:08.568Z,6.44
2022-11-20T11:01:08.608Z,6.54
2022-11-20T11:02:08.777Z,6.36
2022-11-20T11:03:08.794Z,6.17
2022-11-20T11:04:08.516Z,6.20
2022-11-20T11:05:14.098Z,6.31
2022-11-20T11:06:08.502Z,6.51
2022-11-20T11:07:08.547Z,6.54
2022-11-20T11:08:08.506Z,6.82
2022-11-20T11:09:08.487Z,7.13
2022-11-20T11:10:08.455Z,7.14
2022-11-20T11:11:08.475Z,7.21
2022-11-20T11:12:08.433Z,6.57
2022-11-20T11:13:08.467Z,6.70
2022-11-20T11:14:08.419Z,7.15
2022-11-20T11:15:08.421Z,7.24
2022-11-20T11:16:08.384Z,6.95
2022-11-20T11:17:08.420Z,6.62
2022-11-20T11:18:08.362Z,6.26
2022-11-20T11:19:08.388Z,6.07
2022-11-20T11:20:08.363Z,5.89
2022-11-20T11:21:08.379Z,5.84
2022-11-20T11:22:08.320Z,5.47
2022-11-20T11:23:08.333Z,5.46
2022-11-20T11:24:34.702Z,5.41
2022-11-20T11:25:08.323Z,5.30
2022-11-20T11:26:08.283Z,5.47
2022-11-20T11:27:12.377Z,5.61
2022-11-20T11:28:08.303Z,5.57
2022-11-20T11:29:08.268Z,5.53
2022-11-20T11:30:08.250Z,5.71
2022-11-20T11:31:08.258Z,5.75
2022-11-20T11:32:08.213Z,5.86
2022-11-20T11:33:08.265Z,6.11
2022-11-20T11:34:08.192Z,5.97
2022-11-20T11:35:08.222Z,5.71
2022-11-20T11:36:08.180Z,5.62
2022-11-20T11:37:08.200Z,5.36
2022-11-20T11:38:08.161Z,5.00
2022-11-20T11:39:08.178Z,4.52
2022-11-20T11:40:24.781Z,4.31
2022-11-20T11:41:08.162Z,4.12
2022-11-20T11:42:08.117Z,4.17
2022-11-20T11:43:08.131Z,4.30
2022-11-20T11:44:08.116Z,4.44
2022-11-20T11:45:08.101Z,4.67
2022-11-20T11:46:08.107Z,4.93
2022-11-20T11:47:08.111Z,5.08
2022-11-20T11:48:08.073Z,5.02
2022-11-20T11:49:08.057Z,5.11
2022-11-20T11:50:08.052Z,5.11
2022-11-20T11:51:08.060Z,5.04
2022-11-20T11:52:08.047Z,5.00
2022-11-20T11:53:08.023Z,4.97
2022-11-20T11:54:07.988Z,5.15
2022-11-20T11:55:11.621Z,5.26
2022-11-20T11:56:07.993Z,5.15
2022-11-20T11:57:08.089Z,5.05
2022-11-20T11:58:07.943Z,5.11
2022-11-20T11:59:07.960Z,5.18
2022-11-20T12:00:07.928Z,5.11
2022-11-20T12:01:07.932Z,5.20
2022-11-20T12:02:07.942Z,5.25
2022-11-20T12:03:07.936Z,5.10
2022-11-20T12:04:07.880Z,5.07
2022-11-20T12:05:07.887Z,4.78
2022-11-20T12:06:07.885Z,4.56
2022-11-20T12:07:44.171Z,4.45
2022-11-20T12:08:12.393Z,4.28
2022-11-20T12:09:07.850Z,4.17
2022-11-20T12:10:07.813Z,4.06
2022-11-20T12:11:07.825Z,3.98
2022-11-20T12:12:07.823Z,3.91
2022-11-20T12:13:07.801Z,3.80
2022-11-20T12:14:07.783Z,3.70
2022-11-20T12:15:07.796Z,3.68
2022-11-20T12:16:07.775Z,3.70
2022-11-20T12:17:07.772Z,3.80
2022-11-20T12:18:07.755Z,3.83
2022-11-20T12:19:08.023Z,3.91
2022-11-20T12:20:07.716Z,3.99
2022-11-20T12:21:07.982Z,4.04
2022-11-20T12:22:07.699Z,4.13
2022-11-20T12:23:07.751Z,4.16
2022-11-20T12:24:07.852Z,4.30
2022-11-20T12:25:07.925Z,4.35
2022-11-20T12:26:07.664Z,4.28
2022-11-20T12:27:07.657Z,4.30
2022-11-20T12:28:08.371Z,4.24
2022-11-20T12:29:07.678Z,4.19
2022-11-20T12:30:08.416Z,4.26
2022-11-20T12:31:07.615Z,4.20
2022-11-20T12:32:07.631Z,4.19
2022-11-20T12:33:07.589Z,4.13
2022-11-20T12:34:07.596Z,4.02
2022-11-20T12:35:11.418Z,4.06
2022-11-20T12:36:07.546Z,4.05
2022-11-20T12:37:07.575Z,4.05
2022-11-20T12:38:07.615Z,3.99
2022-11-20T12:39:07.533Z,3.96
2022-11-20T12:40:07.533Z,4.04
2022-11-20T12:41:07.529Z,4.23
2022-11-20T12:42:07.494Z,4.28
2022-11-20T12:43:07.506Z,4.48
2022-11-20T12:44:07.464Z,4.38
2022-11-20T12:45:07.496Z,4.34
2022-11-20T12:46:07.452Z,4.34
2022-11-20T12:47:07.576Z,4.37
2022-11-20T12:48:07.435Z,4.38
2022-11-20T12:49:07.451Z,4.42
2022-11-20T12:50:07.509Z,4.32
2022-11-20T12:51:15.112Z,4.26
2022-11-20T12:52:07.379Z,4.22
2022-11-20T12:53:07.436Z,4.08
2022-11-20T12:54:07.361Z,3.99
2022-11-20T12:55:07.380Z,3.95
2022-11-20T12:56:07.360Z,3.95
2022-11-20T12:57:07.357Z,3.86
2022-11-20T12:58:07.329Z,3.84
2022-11-20T12:59:07.381Z,3.80
2022-11-20T13:00:07.444Z,3.73
2022-11-20T13:01:07.326Z,3.65
2022-11-20T13:02:07.462Z,3.66
2022-11-20T13:03:07.428Z,3.63